Time;durP1;ratioP1;P1;durP2;ratioP2;P2;SDS_P1;SDS_P2;PMS_P1;PMS_P2;Temp;Humidity;BMP_temperature;BMP_pressure;BME280_temperature;BME280_humidity;BME280_pressure;Samples;Min_cycle;Max_cycle;Signal;HPM_P1;HPM_P2
2022/06/03 00:01:58;;;;;;;13.48;6.13;;;;;;;22.02;58.85;94978.16;4166060;28;20118;-56
2022/06/03 00:04:35;;;;;;;10.60;5.22;;;;;;;22.03;58.95;94974.47;4166741;28;20168;-52
2022/06/03 00:07:12;;;;;;;8.73;5.32;;;;;;;22.12;58.78;94977.63;4164210;28;20046;-52
2022/06/03 00:09:17;;;;;;;9.30;5.40;;;;;;;22.19;58.86;94972.22;4162553;28;20049;-57
2022/06/03 00:12:01;;;;;;;8.90;5.20;;;;;;;22.25;58.57;94974.84;4162644;28;20057;-57
2022/06/03 00:14:23;;;;;;;12.10;5.50;;;;;;;22.32;58.32;94971.25;4163974;28;20045;-57
2022/06/03 00:16:34;;;;;;;6.95;4.95;;;;;;;22.32;58.16;94974.75;4172114;28;20523;-55
2022/06/03 00:18:48;;;;;;;9.30;5.53;;;;;;;22.36;58.49;94973.25;4168771;28;20057;-52
2022/06/03 00:21:12;;;;;;;9.70;5.40;;;;;;;22.38;58.40;94970.38;4161017;28;20063;-55
2022/06/03 00:23:46;;;;;;;8.80;5.20;;;;;;;22.41;58.29;94972.56;4174383;28;20077;-53
2022/06/03 00:26:14;;;;;;;9.50;5.78;;;;;;;22.46;57.99;94972.72;4172707;28;20214;-53
2022/06/03 00:28:24;;;;;;;8.15;5.45;;;;;;;22.45;58.06;94973.75;4174382;28;20041;-55
2022/06/03 00:30:45;;;;;;;8.15;4.60;;;;;;;22.45;58.19;94971.09;4171230;28;20561;-54
2022/06/03 00:33:09;;;;;;;8.50;5.10;;;;;;;22.40;58.44;94971.75;4159061;28;20057;-56
2022/06/03 00:35:43;;;;;;;6.82;4.90;;;;;;;22.34;58.87;94977.19;4173190;28;20106;-54
2022/06/03 00:37:58;;;;;;;8.68;5.07;;;;;;;22.33;58.54;94971.06;4160162;28;20481;-56
2022/06/03 00:40:10;;;;;;;7.70;5.25;;;;;;;22.35;58.33;94971.63;4175049;28;20048;-55
2022/06/03 00:42:43;;;;;;;8.90;5.78;;;;;;;22.34;58.57;94969.19;4172660;28;20095;-56
2022/06/03 00:45:19;;;;;;;9.52;5.20;;;;;;;22.33;58.74;94973.72;4165966;28;20232;-56
2022/06/03 00:47:27;;;;;;;9.30;5.18;;;;;;;22.33;58.70;94967.53;4172859;28;20041;-58
2022/06/03 00:49:54;;;;;;;9.68;5.85;;;;;;;22.31;58.87;94969.66;4175492;28;20049;-54
2022/06/03 00:52:30;;;;;;;9.52;5.82;;;;;;;22.26;59.08;94973.81;4168774;28;20045;-55
2022/06/03 00:54:48;;;;;;;9.38;5.45;;;;;;;22.21;59.23;94962.13;4176573;28;20057;-56
2022/06/03 00:57:15;;;;;;;6.80;5.30;;;;;;;22.14;59.43;94964.88;4163054;28;20131;-55
2022/06/03 00:59:17;;;;;;;10.85;6.20;;;;;;;21.94;59.65;94967.81;4159670;28;20049;-57
2022/06/03 01:01:25;;;;;;;12.45;5.90;;;;;;;21.52;61.08;94977.50;4172499;28;20093;-55
2022/06/03 01:03:29;;;;;;;9.00;5.63;;;;;;;21.24;62.25;94968.88;4172768;28;20224;-55
2022/06/03 01:05:52;;;;;;;9.30;5.40;;;;;;;20.99;63.29;94973.41;4170457;28;20314;-55
2022/06/03 01:08:18;;;;;;;10.68;5.70;;;;;;;20.85;63.50;94970.03;4160707;28;20123;-56
2022/06/03 01:10:44;;;;;;;9.43;6.28;;;;;;;20.90;63.69;94972.03;4176350;28;20048;-55
2022/06/03 01:13:18;;;;;;;10.13;5.70;;;;;;;21.08;63.17;94961.47;4161697;28;20050;-56
2022/06/03 01:15:29;;;;;;;10.40;5.63;;;;;;;21.21;62.87;94957.88;4157804;28;20058;-54
2022/06/03 01:17:49;;;;;;;11.52;5.50;;;;;;;21.33;62.46;94965.94;4168751;28;20116;-55
2022/06/03 01:20:20;;;;;;;9.00;5.10;;;;;;;21.45;62.12;94966.91;4162408;28;20246;-55
2022/06/03 01:22:33;;;;;;;11.65;5.13;;;;;;;21.54;61.81;94962.91;4164071;28;20080;-54
2022/06/03 01:24:47;;;;;;;9.40;4.90;;;;;;;21.63;61.26;94958.91;4163002;28;20049;-55
2022/06/03 01:27:03;;;;;;;7.70;5.45;;;;;;;21.71;61.07;94955.13;4176618;28;20118;-58
2022/06/03 01:29:28;;;;;;;9.38;5.55;;;;;;;21.72;61.09;94953.28;4173385;28;20103;-58
2022/06/03 01:31:56;;;;;;;11.77;5.30;;;;;;;21.51;61.62;94949.19;4171504;28;20490;-57
2022/06/03 01:34:09;;;;;;;11.35;4.72;;;;;;;21.42;61.44;94956.66;4164920;28;20106;-58
2022/06/03 01:36:36;;;;;;;10.52;4.85;;;;;;;21.39;61.68;94967.75;4171155;28;20099;-57
2022/06/03 01:39:02;;;;;;;7.65;4.68;;;;;;;21.39;61.68;94949.88;4162295;28;20110;-57
2022/06/03 01:41:17;;;;;;;8.75;4.75;;;;;;;21.44;61.37;94958.06;4172331;28;20049;-57
2022/06/03 01:43:46;;;;;;;7.97;5.13;;;;;;;21.46;61.36;94963.19;4161172;28;20053;-55
2022/06/03 01:46:09;;;;;;;9.63;5.45;;;;;;;21.44;61.25;94960.72;4169561;28;20041;-57
2022/06/03 01:48:38;;;;;;;11.82;4.85;;;;;;;21.33;61.32;94960.63;4170587;28;20114;-53
2022/06/03 01:51:12;;;;;;;11.07;4.38;;;;;;;21.29;61.77;94965.56;4175201;28;20475;-54
2022/06/03 01:53:23;;;;;;;7.47;4.03;;;;;;;21.24;61.49;94966.22;4166185;28;20041;-59
2022/06/03 01:55:50;;;;;;;8.32;5.18;;;;;;;20.97;62.37;94965.66;4159489;28;20049;-57
2022/06/03 01:58:05;;;;;;;5.70;4.13;;;;;;;20.77;62.96;94964.97;4167062;28;20045;-55
2022/06/03 02:00:24;;;;;;;11.25;4.45;;;;;;;20.62;63.57;94959.94;4162001;28;20045;-57
2022/06/03 02:02:49;;;;;;;8.13;4.63;;;;;;;20.45;64.29;94963.06;4175582;28;20497;-57
2022/06/03 02:04:54;;;;;;;14.50;4.97;;;;;;;20.39;64.47;94965.78;4169157;28;20057;-56
2022/06/03 02:07:44;;;;;;;11.30;5.20;;;;;;;20.41;64.53;94969.88;4166305;28;20044;-55
2022/06/03 02:09:58;;;;;;;11.05;4.85;;;;;;;20.49;64.42;94968.00;4171971;28;20525;-56
2022/06/03 02:12:03;;;;;;;11.55;4.90;;;;;;;20.59;64.27;94974.50;4158173;28;20075;-56
2022/06/03 02:14:35;;;;;;;10.98;5.30;;;;;;;20.74;63.76;94976.88;4161890;28;20568;-57
2022/06/03 02:16:55;;;;;;;9.55;5.25;;;;;;;20.83;63.62;94977.41;4172286;28;20436;-55
2022/06/03 02:19:30;;;;;;;11.65;4.97;;;;;;;20.88;63.30;94974.09;4159332;28;20119;-55
2022/06/03 02:21:38;;;;;;;11.25;5.60;;;;;;;20.93;62.99;94979.59;4163666;28;20054;-54
2022/06/03 02:23:57;;;;;;;10.27;5.18;;;;;;;20.79;63.61;94977.03;4158594;28;20050;-56
2022/06/03 02:26:17;;;;;;;10.02;5.40;;;;;;;20.78;63.69;94980.75;4158677;28;20060;-54
2022/06/03 02:28:44;;;;;;;14.48;5.40;;;;;;;20.69;63.88;94979.34;4159192;28;20057;-55
2022/06/03 02:31:39;;;;;;;9.13;5.55;;;;;;;20.76;63.90;94979.31;4160500;28;20450;-54
2022/06/03 02:33:41;;;;;;;9.40;6.05;;;;;;;20.81;63.64;94980.28;4158756;28;20045;-53
2022/06/03 02:36:01;;;;;;;10.43;5.60;;;;;;;20.87;63.43;94981.28;4164883;28;20054;-54
2022/06/03 02:38:15;;;;;;;9.55;5.35;;;;;;;20.89;63.22;94986.38;4168157;28;20049;-54
2022/06/03 02:40:31;;;;;;;10.27;6.32;;;;;;;20.92;63.31;94983.28;4162654;28;20147;-55
2022/06/03 02:42:43;;;;;;;9.30;5.28;;;;;;;20.95;62.96;94991.69;4172312;28;20049;-54
2022/06/03 02:45:13;;;;;;;11.07;5.57;;;;;;;20.96;63.00;94984.50;4167054;28;20077;-54
2022/06/03 02:48:08;;;;;;;10.77;5.65;;;;;;;21.00;63.00;94991.03;4171368;28;20052;-56
2022/06/03 02:50:40;;;;;;;11.15;5.97;;;;;;;20.96;62.79;94990.63;4167361;28;20045;-55
2022/06/03 02:53:03;;;;;;;9.85;5.95;;;;;;;20.80;63.62;94996.47;4172918;28;20073;-54
2022/06/03 02:55:18;;;;;;;13.32;6.47;;;;;;;20.77;63.62;94994.25;4166834;28;20107;-57
2022/06/03 02:57:35;;;;;;;9.98;5.55;;;;;;;20.65;63.67;94999.47;4162796;28;20115;-54
2022/06/03 02:59:54;;;;;;;12.43;6.30;;;;;;;20.50;64.27;94996.22;4155597;28;20065;-56
2022/06/03 03:02:20;;;;;;;9.07;5.55;;;;;;;20.41;64.58;94990.34;4165404;28;20053;-60
2022/06/03 03:04:22;;;;;;;10.55;5.53;;;;;;;20.45;64.49;94996.88;4174492;28;20052;-55
2022/06/03 03:06:26;;;;;;;10.43;5.90;;;;;;;20.52;64.03;94997.66;4161752;28;20076;-55
2022/06/03 03:08:35;;;;;;;12.02;6.38;;;;;;;20.56;64.04;94995.38;4168822;28;20346;-54
2022/06/03 03:11:03;;;;;;;9.70;6.35;;;;;;;20.62;63.99;94991.88;4158567;28;20479;-55
2022/06/03 03:13:26;;;;;;;9.98;6.43;;;;;;;20.72;63.58;94994.09;4164993;28;20045;-56
2022/06/03 03:15:59;;;;;;;10.68;7.13;;;;;;;20.80;63.40;94993.81;4169339;28;20497;-55
2022/06/03 03:18:28;;;;;;;13.38;6.32;;;;;;;20.86;63.01;94990.28;4160001;28;20049;-53
2022/06/03 03:20:51;;;;;;;11.40;6.78;;;;;;;20.95;62.93;95001.50;4162655;28;20041;-56
2022/06/03 03:22:58;;;;;;;9.70;6.50;;;;;;;21.01;62.84;94997.97;4161859;28;20104;-53
2022/06/03 03:25:22;;;;;;;10.10;6.50;;;;;;;21.09;62.52;95008.38;4163142;28;20057;-55
2022/06/03 03:28:01;;;;;;;11.55;6.45;;;;;;;21.14;62.49;95011.19;4169711;28;20045;-52
2022/06/03 03:30:19;;;;;;;12.85;6.25;;;;;;;21.20;62.31;95004.19;4173161;28;20106;-53
2022/06/03 03:32:53;;;;;;;8.80;5.53;;;;;;;21.26;62.05;95008.63;4160824;28;20049;-56
2022/06/03 03:35:20;;;;;;;10.07;5.03;;;;;;;21.30;62.05;95004.50;4184526;28;20140;-54
2022/06/03 03:38:00;;;;;;;7.30;5.25;;;;;;;21.35;61.66;95003.84;4178017;28;20075;-56
2022/06/03 03:40:29;;;;;;;8.25;5.20;;;;;;;21.39;61.65;95011.19;4164660;28;20057;-60
2022/06/03 03:43:16;;;;;;;11.52;5.20;;;;;;;21.44;61.56;95010.56;4161491;28;20049;-55
2022/06/03 03:46:15;;;;;;;6.85;4.63;;;;;;;21.54;61.10;95012.75;4171666;28;20481;-56
2022/06/03 03:48:19;;;;;;;9.98;4.97;;;;;;;21.58;61.15;95013.94;4168793;28;20045;-54
2022/06/03 03:50:36;;;;;;;8.05;4.65;;;;;;;21.63;60.96;95012.22;4169901;28;20110;-56
2022/06/03 03:53:06;;;;;;;7.60;4.88;;;;;;;21.66;60.95;95016.28;4158957;28;20057;-55
2022/06/03 03:56:04;;;;;;;6.32;4.50;;;;;;;21.73;60.98;95021.59;4160683;28;20131;-57
2022/06/03 03:58:25;;;;;;;9.45;5.32;;;;;;;21.83;60.60;95016.53;4161807;28;20548;-56
2022/06/03 04:01:05;;;;;;;12.48;5.07;;;;;;;21.92;60.16;95022.38;4160369;28;20095;-56
2022/06/03 04:03:12;;;;;;;8.55;4.63;;;;;;;22.00;60.07;95022.09;4162112;28;20124;-56
2022/06/03 04:05:31;;;;;;;13.65;5.47;;;;;;;22.04;59.83;95021.44;4166877;28;20053;-55
2022/06/03 04:08:11;;;;;;;17.92;6.10;;;;;;;21.98;60.49;95021.50;4165925;28;20041;-59
2022/06/03 04:10:43;;;;;;;11.75;6.47;;;;;;;21.94;60.42;95015.81;4167061;28;20118;-55
2022/06/03 04:12:57;;;;;;;9.80;5.32;;;;;;;21.94;60.09;95012.31;4166787;28;20150;-58
2022/06/03 04:15:36;;;;;;;11.23;5.72;;;;;;;21.91;60.85;95004.78;4163889;28;20059;-57
2022/06/03 04:17:57;;;;;;;10.75;5.38;;;;;;;21.87;60.73;95012.38;4161422;28;20084;-56
2022/06/03 04:20:19;;;;;;;12.27;5.50;;;;;;;21.93;60.47;95014.16;4165796;28;20056;-52
2022/06/03 04:23:05;;;;;;;17.08;6.05;;;;;;;21.62;61.44;95023.13;4169434;28;20056;-56
2022/06/03 04:25:16;;;;;;;10.85;5.60;;;;;;;21.28;62.80;95015.38;4163513;28;20071;-55
2022/06/03 04:27:30;;;;;;;17.58;5.55;;;;;;;21.06;63.61;95016.81;4161214;28;20107;-55
2022/06/03 04:30:09;;;;;;;9.18;5.63;;;;;;;21.01;63.73;95019.28;4160665;28;20050;-56
2022/06/03 04:32:47;;;;;;;16.13;5.55;;;;;;;21.00;63.74;95020.31;4164342;28;20391;-55
2022/06/03 04:35:00;;;;;;;18.38;6.07;;;;;;;21.16;63.57;95024.28;4174317;28;20535;-56
2022/06/03 04:37:40;;;;;;;17.05;5.95;;;;;;;21.26;63.44;95028.09;4160844;28;20119;-54
2022/06/03 04:39:53;;;;;;;10.68;5.65;;;;;;;21.37;62.62;95031.09;4169946;28;20056;-56
2022/06/03 04:42:13;;;;;;;8.23;5.20;;;;;;;21.22;62.88;95037.56;4173863;28;20193;-55
2022/06/03 04:44:57;;;;;;;14.38;5.60;;;;;;;21.27;62.84;95045.75;4163625;28;20094;-55
2022/06/03 04:47:20;;;;;;;14.73;6.10;;;;;;;21.26;63.33;95049.41;4160429;28;20120;-55
2022/06/03 04:49:24;;;;;;;12.00;5.85;;;;;;;21.37;63.17;95055.09;4161007;28;20049;-54
2022/06/03 04:51:55;;;;;;;14.95;5.50;;;;;;;21.45;62.90;95057.50;4160909;28;20065;-55
2022/06/03 04:54:01;;;;;;;13.50;5.95;;;;;;;21.37;63.13;95060.41;4161911;28;20088;-57
2022/06/03 04:56:08;;;;;;;8.43;5.05;;;;;;;21.43;63.38;95059.56;4161725;28;20069;-58
2022/06/03 04:58:38;;;;;;;15.05;5.72;;;;;;;21.62;63.05;95058.59;4161172;28;20049;-57
2022/06/03 05:01:04;;;;;;;12.02;5.88;;;;;;;21.73;62.70;95061.59;4162710;28;20049;-55
2022/06/03 05:03:56;;;;;;;8.68;6.22;;;;;;;21.97;62.71;95066.03;4177178;28;20044;-54
2022/06/03 05:06:29;;;;;;;10.73;5.40;;;;;;;22.22;61.25;95070.50;4169564;28;20501;-54
2022/06/03 05:08:30;;;;;;;8.25;5.35;;;;;;;22.43;60.38;95069.25;4164799;28;20865;-55
2022/06/03 05:10:38;;;;;;;10.85;4.97;;;;;;;22.62;59.68;95062.03;4164554;28;20479;-56
2022/06/03 05:12:58;;;;;;;14.10;5.60;;;;;;;22.70;59.46;95059.06;4166607;28;20107;-55
2022/06/03 05:15:24;;;;;;;7.10;4.82;;;;;;;22.51;60.00;95060.94;4159075;28;20057;-54
2022/06/03 05:17:39;;;;;;;12.00;4.82;;;;;;;22.38;60.18;95072.59;4163715;28;20107;-57
2022/06/03 05:20:27;;;;;;;11.20;5.93;;;;;;;22.33;60.68;95063.63;4161544;28;20708;-54
2022/06/03 05:23:00;;;;;;;10.55;5.45;;;;;;;22.21;61.32;95061.66;4153792;28;20053;-55
2022/06/03 05:25:02;;;;;;;11.80;4.63;;;;;;;22.22;61.65;95068.69;4157829;28;20049;-53
2022/06/03 05:27:33;;;;;;;12.90;5.35;;;;;;;22.40;61.11;95070.53;4159597;28;20242;-55
2022/06/03 05:29:40;;;;;;;15.02;5.70;;;;;;;22.63;60.37;95069.84;4162280;28;20100;-57
2022/06/03 05:32:10;;;;;;;10.80;5.10;;;;;;;22.59;60.57;95067.84;4172146;28;20054;-54
2022/06/03 05:34:47;;;;;;;11.95;4.95;;;;;;;22.79;60.11;95072.91;4163116;28;20406;-56
2022/06/03 05:37:19;;;;;;;13.30;4.80;;;;;;;22.91;60.03;95087.16;4142098;28;20049;-56
2022/06/03 05:39:45;;;;;;;7.65;4.68;;;;;;;22.72;60.48;95083.69;4160040;28;20056;-54
2022/06/03 05:44:22;;;;;;;17.17;4.82;;;;;;;22.38;61.58;95087.81;4160289;28;20115;-56
2022/06/03 05:46:40;;;;;;;11.40;4.50;;;;;;;22.26;62.25;95085.88;4164662;28;20049;-54
2022/06/03 05:48:41;;;;;;;9.90;5.00;;;;;;;22.43;61.28;95079.94;4176394;28;20126;-55
2022/06/03 05:50:51;;;;;;;14.32;6.85;;;;;;;22.56;61.23;95073.63;4175909;28;20103;-54
2022/06/03 05:52:53;;;;;;;9.63;5.00;;;;;;;22.81;60.79;95076.19;4161560;28;20127;-51
2022/06/03 05:55:09;;;;;;;7.05;4.88;;;;;;;23.02;60.16;95066.88;4170113;28;20587;-56
2022/06/03 05:57:26;;;;;;;11.02;5.43;;;;;;;23.18;59.38;95066.22;4157550;28;20107;-57
2022/06/03 05:59:46;;;;;;;8.13;4.72;;;;;;;23.37;59.34;95068.81;4173588;28;20107;-55
2022/06/03 06:02:14;;;;;;;9.48;5.63;;;;;;;23.56;58.95;95067.69;4168692;28;20052;-56
2022/06/03 06:04:38;;;;;;;9.90;4.75;;;;;;;23.70;58.33;95054.91;4171656;28;20209;-54
2022/06/03 06:06:57;;;;;;;11.40;5.20;;;;;;;23.74;58.60;95049.91;4159613;28;20050;-54
2022/06/03 06:09:33;;;;;;;6.95;4.75;;;;;;;23.82;57.79;95054.94;4167845;28;20061;-55
2022/06/03 06:11:46;;;;;;;11.13;5.70;;;;;;;23.78;57.69;95056.44;4159205;28;20065;-57
2022/06/03 06:13:59;;;;;;;13.02;4.88;;;;;;;23.74;57.56;95047.22;4159701;28;20107;-55
2022/06/03 06:16:40;;;;;;;10.43;5.05;;;;;;;23.70;57.58;95053.06;4156550;28;20495;-55
2022/06/03 06:19:24;;;;;;;13.32;4.72;;;;;;;23.38;57.27;95049.91;4161926;28;20108;-56
2022/06/03 06:21:31;;;;;;;9.80;4.75;;;;;;;23.33;57.72;95044.41;4172904;28;20052;-56
2022/06/03 06:23:40;;;;;;;9.13;4.30;;;;;;;23.56;57.01;95046.31;4169847;28;20053;-54
2022/06/03 06:26:11;;;;;;;9.93;4.90;;;;;;;23.73;56.71;95045.63;4158980;28;20101;-55
2022/06/03 06:28:31;;;;;;;11.23;5.18;;;;;;;23.59;57.47;95053.84;4174494;28;20049;-55
2022/06/03 06:30:36;;;;;;;12.02;5.13;;;;;;;23.84;57.08;95050.97;4163595;28;20064;-55
2022/06/03 06:32:56;;;;;;;9.18;5.07;;;;;;;23.95;57.09;95052.03;4175570;28;20069;-54
2022/06/03 06:35:35;;;;;;;6.78;4.35;;;;;;;23.98;57.38;95051.53;4175696;28;20057;-55
2022/06/03 06:37:37;;;;;;;8.60;4.88;;;;;;;24.06;57.52;95043.16;4167610;28;20460;-54
2022/06/03 06:39:44;;;;;;;11.02;5.53;;;;;;;24.17;57.21;95043.38;4164084;28;20058;-56
2022/06/03 06:42:21;;;;;;;13.00;5.43;;;;;;;24.28;57.10;95038.00;4160190;28;20053;-55
2022/06/03 06:44:44;;;;;;;9.25;5.72;;;;;;;24.12;56.33;95039.56;4173494;28;20679;-55
2022/06/03 06:47:03;;;;;;;14.88;5.53;;;;;;;24.11;56.64;95037.94;4162849;28;20045;-54
2022/06/03 06:49:26;;;;;;;8.63;5.32;;;;;;;24.23;57.06;95037.09;4172349;28;20118;-54
2022/06/03 06:51:41;;;;;;;8.35;4.53;;;;;;;24.43;56.25;95026.78;4169570;28;20118;-56
2022/06/03 06:53:53;;;;;;;8.02;4.32;;;;;;;24.66;55.85;95033.16;4157903;28;20688;-57
2022/06/03 06:56:03;;;;;;;10.73;4.80;;;;;;;24.87;55.27;95034.34;4158529;28;20068;-57
2022/06/03 06:58:18;;;;;;;7.75;4.78;;;;;;;24.94;54.69;95035.81;4171586;28;20049;-58
2022/06/03 07:00:24;;;;;;;13.35;5.85;;;;;;;24.94;54.92;95043.84;4164934;28;20094;-55
2022/06/03 07:02:38;;;;;;;10.32;4.90;;;;;;;25.03;54.83;95038.13;4162022;28;20057;-55
2022/06/03 07:04:46;;;;;;;6.78;4.30;;;;;;;25.20;53.92;95033.63;4172192;28;20057;-54
2022/06/03 07:07:06;;;;;;;8.07;5.03;;;;;;;25.07;54.32;95036.56;4163002;28;20057;-53
2022/06/03 07:09:10;;;;;;;8.73;5.38;;;;;;;25.13;54.00;95032.94;4164651;28;20490;-57
2022/06/03 07:11:17;;;;;;;12.00;5.18;;;;;;;25.16;52.55;95035.13;4158638;28;20463;-59
2022/06/03 07:13:50;;;;;;;8.98;4.90;;;;;;;25.18;53.11;95034.88;4174951;28;20362;-60
2022/06/03 07:16:01;;;;;;;12.18;4.75;;;;;;;25.24;53.01;95037.44;4162656;28;20084;-55
2022/06/03 07:21:14;;;;;;;10.82;4.45;;;;;;;25.45;52.29;95029.75;4173421;28;20052;-55
2022/06/03 07:23:30;;;;;;;8.70;5.38;;;;;;;25.42;51.63;95025.66;4170647;28;20514;-57
2022/06/03 07:25:45;;;;;;;9.85;4.60;;;;;;;25.50;51.87;95029.81;4167727;28;20217;-56
2022/06/03 07:27:53;;;;;;;8.75;5.30;;;;;;;25.32;51.98;95029.00;4157466;28;20057;-57
2022/06/03 07:30:16;;;;;;;10.43;4.88;;;;;;;25.21;51.82;95035.25;4164879;28;20927;-56
2022/06/03 07:32:25;;;;;;;17.70;7.78;;;;;;;24.97;52.33;95031.84;4160764;28;20137;-56
2022/06/03 07:34:32;;;;;;;9.30;4.82;;;;;;;25.17;52.33;95028.72;4173182;28;20287;-55
2022/06/03 07:36:44;;;;;;;15.85;8.70;;;;;;;25.19;51.54;95028.44;4162254;28;20089;-58
2022/06/03 07:38:59;;;;;;;24.23;10.15;;;;;;;25.17;52.04;95034.09;4158983;28;20792;-55
2022/06/03 07:41:16;;;;;;;15.93;6.93;;;;;;;25.34;51.60;95032.25;4173485;28;20049;-57
2022/06/03 07:43:17;;;;;;;10.60;4.85;;;;;;;25.64;51.56;95038.31;4167225;28;20477;-55
2022/06/03 07:45:33;;;;;;;13.50;6.15;;;;;;;25.78;50.40;95036.13;4174073;28;20053;-55
2022/06/03 07:47:36;;;;;;;10.93;5.38;;;;;;;25.93;49.81;95039.06;4174548;28;20139;-57
2022/06/03 07:49:39;;;;;;;14.63;5.47;;;;;;;26.11;49.43;95041.47;4173079;28;20076;-56
2022/06/03 07:51:44;;;;;;;14.25;5.90;;;;;;;26.36;49.61;95056.28;4166783;28;20061;-55
2022/06/03 07:53:56;;;;;;;7.70;4.55;;;;;;;26.59;48.95;95049.88;4167555;28;20167;-57
2022/06/03 07:55:59;;;;;;;15.82;5.00;;;;;;;26.47;48.64;95049.97;4174198;28;20052;-56
2022/06/03 07:58:09;;;;;;;9.38;4.65;;;;;;;26.23;48.79;95051.28;4168966;28;20046;-55
2022/06/03 08:00:15;;;;;;;11.73;5.05;;;;;;;26.01;48.96;95044.00;4162349;28;20115;-54
2022/06/03 08:02:19;;;;;;;7.68;4.75;;;;;;;26.02;49.16;95047.50;4169541;28;20398;-56
2022/06/03 08:04:29;;;;;;;11.18;5.18;;;;;;;25.80;49.98;95042.06;4160033;28;20203;-55
2022/06/03 08:11:24;;;;;;;11.70;4.82;;;;;;;26.19;49.97;95052.84;4169133;28;20080;-57
2022/06/03 08:13:48;;;;;;;13.02;5.40;;;;;;;25.94;49.18;95054.09;4166576;28;20126;-56
2022/06/03 08:15:50;;;;;;;;;;;;;;;25.56;49.51;95055.66;4166369;28;20565;-55
2022/06/03 08:17:51;;;;;;;7.07;4.90;;;;;;;25.51;49.80;95060.94;4172795;28;19971;-58
2022/06/03 08:19:54;;;;;;;11.25;4.68;;;;;;;25.46;50.29;95060.84;4169394;28;20060;-56
2022/06/03 08:22:00;;;;;;;9.07;4.82;;;;;;;25.75;49.73;95059.72;4160854;28;20042;-58
2022/06/03 08:24:05;;;;;;;12.23;5.13;;;;;;;25.94;49.57;95054.09;4169408;28;20122;-57
2022/06/03 08:26:17;;;;;;;8.48;5.40;;;;;;;26.10;49.58;95058.63;4165514;28;20460;-56
2022/06/03 08:28:21;;;;;;;7.65;4.97;;;;;;;26.09;48.86;95057.03;4174381;28;20041;-57
2022/06/03 08:30:24;;;;;;;10.07;5.22;;;;;;;25.90;49.74;95063.72;4163717;28;20052;-59
2022/06/03 08:32:30;;;;;;;9.43;5.00;;;;;;;26.09;49.26;95062.38;4168312;28;20045;-56
2022/06/03 08:34:38;;;;;;;11.52;4.88;;;;;;;26.18;49.19;95061.94;4160034;28;20080;-57
2022/06/03 08:36:40;;;;;;;10.00;4.80;;;;;;;26.30;49.55;95060.75;4161012;28;20049;-55
2022/06/03 08:38:45;;;;;;;7.03;5.00;;;;;;;26.14;49.71;95056.28;4159499;28;20928;-55
2022/06/03 08:41:15;;;;;;;9.85;5.25;;;;;;;25.92;50.28;95061.59;4159344;28;20128;-56
2022/06/03 08:43:54;;;;;;;9.95;4.88;;;;;;;25.97;49.81;95053.63;4169053;28;20041;-58
2022/06/03 08:46:12;;;;;;;13.60;5.25;;;;;;;25.86;49.75;95062.56;4173056;28;20056;-57
2022/06/03 08:48:16;;;;;;;8.20;4.97;;;;;;;25.94;50.25;95054.09;4168655;28;20042;-56
2022/06/03 08:50:23;;;;;;;13.73;4.80;;;;;;;26.11;49.78;95062.97;4160679;28;20061;-59
2022/06/03 08:52:35;;;;;;;11.77;4.78;;;;;;;26.55;49.50;95060.28;4161491;28;20468;-59
2022/06/03 08:54:40;;;;;;;10.95;5.40;;;;;;;26.67;48.77;95062.88;4159266;28;20049;-56
2022/06/03 08:56:44;;;;;;;9.32;4.72;;;;;;;26.65;47.59;95066.88;4166409;28;20053;-56
2022/06/03 08:59:14;;;;;;;10.88;5.10;;;;;;;26.64;47.58;95067.94;4176382;28;20084;-57
2022/06/03 09:01:25;;;;;;;12.20;4.65;;;;;;;27.05;47.32;95068.38;4173039;28;20060;-58
2022/06/03 09:03:30;;;;;;;6.63;4.75;;;;;;;27.45;47.01;95075.22;4167518;28;20131;-57
2022/06/03 09:05:42;;;;;;;8.80;4.28;;;;;;;27.11;45.68;95075.44;4167491;28;20148;-57
2022/06/03 09:07:52;;;;;;;8.43;4.28;;;;;;;26.85;46.38;95080.56;4159087;28;20111;-55
2022/06/03 09:10:14;;;;;;;7.95;4.40;;;;;;;26.52;47.36;95078.78;4158414;28;20041;-56
2022/06/03 09:12:48;;;;;;;8.55;5.20;;;;;;;26.66;46.83;95072.00;4168653;28;20139;-57
2022/06/03 09:14:52;;;;;;;11.35;4.85;;;;;;;26.88;47.00;95071.97;4174668;28;20049;-56
2022/06/03 09:17:02;;;;;;;7.13;4.28;;;;;;;27.14;46.51;95072.22;4176567;28;20083;-57
2022/06/03 09:19:34;;;;;;;8.45;4.53;;;;;;;27.16;45.07;95070.09;4166158;28;20053;-57
2022/06/03 09:21:41;;;;;;;8.35;4.00;;;;;;;27.32;44.89;95074.59;4167752;28;20061;-57
2022/06/03 09:23:46;;;;;;;11.27;3.95;;;;;;;27.57;44.42;95070.50;4171287;28;20316;-58
2022/06/03 09:25:51;;;;;;;5.93;4.20;;;;;;;27.39;45.52;95070.91;4159320;28;20266;-58
2022/06/03 09:27:53;;;;;;;7.10;4.35;;;;;;;27.17;46.15;95072.56;4159517;28;20057;-55
2022/06/03 09:30:04;;;;;;;10.10;4.72;;;;;;;26.90;47.50;95069.84;4157581;28;20128;-58
2022/06/03 09:32:07;;;;;;;13.48;4.60;;;;;;;26.38;48.96;95086.41;4160442;28;20057;-54
2022/06/03 09:34:11;;;;;;;9.48;4.90;;;;;;;25.89;50.34;95080.88;4160062;28;20073;-57
2022/06/03 09:36:17;;;;;;;9.40;4.70;;;;;;;25.79;50.31;95089.56;4170457;28;20131;-54
2022/06/03 09:38:22;;;;;;;12.10;5.03;;;;;;;25.74;49.86;95092.16;4175378;28;20056;-55
2022/06/03 09:40:29;;;;;;;14.10;4.93;;;;;;;25.65;47.49;95089.06;4160810;28;20119;-53
2022/06/03 09:42:31;;;;;;;8.68;3.80;;;;;;;25.74;45.10;95082.22;4159889;28;20159;-56
2022/06/03 09:44:33;;;;;;;12.07;4.45;;;;;;;25.71;45.68;95077.34;4170839;28;20053;-56
2022/06/03 09:46:35;;;;;;;9.50;4.40;;;;;;;25.85;45.75;95077.81;4159808;28;20053;-55
2022/06/03 09:48:39;;;;;;;9.15;4.63;;;;;;;26.07;45.29;95077.94;4169629;28;20065;-55
2022/06/03 09:50:46;;;;;;;8.85;4.63;;;;;;;25.81;45.02;95081.25;4175603;28;20456;-55
2022/06/03 09:52:51;;;;;;;8.18;3.95;;;;;;;25.81;45.20;95075.88;4176100;28;20146;-55
2022/06/03 09:54:54;;;;;;;9.50;3.70;;;;;;;25.60;44.65;95077.44;4170344;28;20061;-58
2022/06/03 09:57:21;;;;;;;7.78;3.90;;;;;;;25.57;43.89;95077.94;4168737;28;20118;-56
2022/06/03 09:59:24;;;;;;;9.52;4.10;;;;;;;25.63;44.63;95085.00;4159929;28;20103;-54
2022/06/03 10:01:27;;;;;;;8.60;4.63;;;;;;;25.74;44.44;95087.59;4160787;28;20129;-57
2022/06/03 10:03:29;;;;;;;10.40;4.40;;;;;;;25.57;45.67;95080.59;4175250;28;20132;-56
2022/06/03 10:05:31;;;;;;;7.72;3.75;;;;;;;25.53;45.83;95085.63;4166118;28;20050;-52
2022/06/03 10:07:33;;;;;;;9.32;4.13;;;;;;;25.60;45.43;95086.31;4169937;28;20099;-55
2022/06/03 10:14:16;;;;;;;4.80;3.97;;;;;;;25.51;45.84;95077.84;4164439;28;20057;-57
2022/06/03 10:16:17;;;;;;;9.55;4.85;;;;;;;25.64;45.50;95084.78;4155940;28;20127;-56
2022/06/03 10:18:37;;;;;;;9.95;4.30;;;;;;;25.71;45.45;95080.03;4170272;28;20049;-55
2022/06/03 10:20:39;;;;;;;7.38;4.35;;;;;;;25.81;44.68;95082.06;4168544;28;20568;-57
2022/06/03 10:22:41;;;;;;;11.45;4.57;;;;;;;25.83;45.23;95079.13;4161198;28;20057;-57
2022/06/03 10:24:42;;;;;;;14.35;5.30;;;;;;;25.90;45.54;95088.69;4160325;28;20088;-59
2022/06/03 10:26:57;;;;;;;8.95;5.10;;;;;;;26.06;45.52;95078.97;4170977;28;20103;-54
2022/06/03 10:29:14;;;;;;;8.07;4.25;;;;;;;26.13;45.53;95079.59;4158911;28;20053;-58
2022/06/03 10:31:26;;;;;;;14.73;4.63;;;;;;;26.18;45.63;95080.72;4159344;28;20049;-54
2022/06/03 10:33:27;;;;;;;9.55;4.28;;;;;;;26.36;46.28;95089.31;4160886;28;20057;-56
2022/06/03 10:35:34;;;;;;;12.43;4.97;;;;;;;26.73;45.72;95077.97;4163379;28;20048;-56
2022/06/03 10:37:35;;;;;;;9.52;4.47;;;;;;;27.13;45.26;95078.69;4169851;28;20057;-55
2022/06/03 10:39:40;;;;;;;12.65;4.55;;;;;;;27.41;44.89;95074.94;4159030;28;20045;-57
2022/06/03 10:41:49;;;;;;;7.80;4.57;;;;;;;27.65;44.43;95082.69;4159769;28;20076;-55
2022/06/03 10:43:50;;;;;;;7.63;4.10;;;;;;;27.41;42.28;95076.84;4158423;28;20057;-56
2022/06/03 10:46:10;;;;;;;7.50;4.75;;;;;;;27.43;43.26;95077.41;4156231;28;20136;-55
2022/06/03 10:48:19;;;;;;;11.60;4.75;;;;;;;27.81;43.23;95075.53;4165882;28;20047;-59
2022/06/03 10:50:23;;;;;;;9.73;4.20;;;;;;;28.10;42.60;95074.16;4164116;28;20529;-55
2022/06/03 11:01:59;;;;;;;11.88;4.47;;;;;;;28.02;41.52;95050.41;4174742;28;20221;-58
2022/06/03 11:04:06;;;;;;;9.30;4.70;;;;;;;28.22;41.91;95049.69;4163807;28;20049;-56
2022/06/03 11:06:17;;;;;;;14.43;4.43;;;;;;;28.26;41.59;95047.28;4156920;28;20062;-55
2022/06/03 11:08:19;;;;;;;8.63;4.03;;;;;;;28.31;40.69;95052.72;4159022;28;20045;-55